Time;durP1;ratioP1;P1;durP2;ratioP2;P2;SDS_P1;SDS_P2;PMS_P1;PMS_P2;Temp;Humidity;BMP_temperature;BMP_pressure;BME280_temperature;BME280_humidity;BME280_pressure;Samples;Min_cycle;Max_cycle;Signal;HPM_P1;HPM_P2
2021/09/03 00:01:13;;;;;;;10.60;9.60;;;16.30;1.00;;;;;;5049197;28;20537;-55
2021/09/03 00:03:39;;;;;;;10.70;9.67;;;16.30;1.00;;;;;;5051859;28;20257;-54
2021/09/03 00:06:04;;;;;;;11.80;9.80;;;16.20;1.00;;;;;;5038548;28;20291;-54
2021/09/03 00:08:30;;;;;;;12.50;9.57;;;16.20;1.00;;;;;;5054011;28;20265;-55
2021/09/03 00:10:56;;;;;;;11.17;9.93;;;16.20;1.00;;;;;;5051881;28;20544;-55
2021/09/03 00:13:21;;;;;;;11.70;10.53;;;16.10;1.00;;;;;;5064209;28;20171;-56
2021/09/03 00:15:47;;;;;;;11.67;9.87;;;16.10;1.00;;;;;;5057033;28;20580;-55
2021/09/03 00:18:12;;;;;;;10.27;9.20;;;16.10;1.00;;;;;;5050483;28;20198;-55
2021/09/03 00:20:38;;;;;;;10.67;9.47;;;16.20;1.00;;;;;;5051831;28;20186;-54
2021/09/03 00:23:03;;;;;;;11.40;9.50;;;16.10;1.00;;;;;;5050853;28;20551;-54
2021/09/03 00:25:29;;;;;;;9.50;8.50;;;16.10;1.00;;;;;;5050112;28;20224;-55
2021/09/03 00:27:55;;;;;;;9.73;8.80;;;16.00;1.00;;;;;;5050295;28;20278;-55
2021/09/03 00:30:20;;;;;;;10.53;9.43;;;16.00;1.00;;;;;;5049174;28;20178;-55
2021/09/03 00:32:46;;;;;;;10.60;9.50;;;16.00;1.00;;;;;;5048594;28;20187;-55
2021/09/03 00:35:12;;;;;;;17.67;15.73;;;15.90;1.00;;;;;;5050884;28;20315;-55
2021/09/03 00:37:38;;;;;;;13.03;11.73;;;15.90;1.00;;;;;;5050681;28;20210;-54
2021/09/03 00:40:05;;;;;;;17.00;15.20;;;15.90;1.00;;;;;;5059228;28;20448;-55
2021/09/03 00:42:31;;;;;;;22.87;19.23;;;15.80;1.00;;;;;;5051348;28;20818;-55
2021/09/03 00:44:56;;;;;;;11.30;9.30;;;15.90;1.00;;;;;;5052371;28;20445;-54
2021/09/03 00:47:22;;;;;;;14.07;9.80;;;15.80;1.00;;;;;;5046720;28;20213;-55
2021/09/03 00:49:47;;;;;;;14.40;11.57;;;15.80;1.00;;;;;;5061669;28;20442;-55
2021/09/03 00:52:14;;;;;;;12.83;11.50;;;15.80;1.00;;;;;;5053056;28;20180;-54
2021/09/03 00:54:39;;;;;;;12.50;10.73;;;15.80;1.00;;;;;;5050351;28;20648;-55
2021/09/03 00:57:05;;;;;;;11.60;10.57;;;15.80;1.00;;;;;;5051334;28;20443;-54
2021/09/03 00:59:31;;;;;;;11.07;9.97;;;15.80;1.00;;;;;;5051823;28;20184;-57
2021/09/03 01:01:56;;;;;;;14.67;12.20;;;15.80;1.00;;;;;;5055998;28;20659;-56
2021/09/03 01:04:22;;;;;;;12.30;11.00;;;15.80;1.00;;;;;;5058742;28;20650;-56
2021/09/03 01:06:48;;;;;;;13.00;10.13;;;15.70;1.00;;;;;;5056190;28;20209;-54
2021/09/03 01:09:13;;;;;;;17.47;10.70;;;15.70;1.00;;;;;;5065069;28;20191;-55
2021/09/03 01:11:39;;;;;;;11.13;10.03;;;15.70;1.00;;;;;;5049669;28;20265;-56
2021/09/03 01:14:05;;;;;;;14.40;10.50;;;15.70;1.00;;;;;;5050472;28;20178;-57
2021/09/03 01:16:30;;;;;;;11.33;10.20;;;15.70;1.00;;;;;;5050548;28;20440;-54
2021/09/03 01:18:58;;;;;;;12.27;10.67;;;15.60;1.00;;;;;;5050529;28;20192;-54
2021/09/03 01:21:24;;;;;;;11.73;10.53;;;15.50;1.00;;;;;;5049608;28;20598;-56
2021/09/03 01:23:50;;;;;;;10.97;9.90;;;15.60;1.00;;;;;;5049365;28;20455;-54
2021/09/03 01:26:15;;;;;;;12.73;11.43;;;15.50;1.00;;;;;;5052084;28;20185;-54
2021/09/03 01:28:41;;;;;;;11.90;9.90;;;15.50;1.00;;;;;;5051501;28;20245;-55
2021/09/03 01:31:07;;;;;;;13.07;9.80;;;15.80;1.00;;;;;;5047422;28;20196;-57
2021/09/03 01:33:32;;;;;;;10.73;9.63;;;15.50;1.00;;;;;;5050403;28;20173;-55
2021/09/03 01:35:58;;;;;;;11.93;9.90;;;15.60;1.00;;;;;;5053900;28;20303;-54
2021/09/03 01:38:24;;;;;;;11.20;10.00;;;15.50;1.00;;;;;;5049970;28;20180;-55
2021/09/03 01:40:50;;;;;;;12.37;10.93;;;15.50;1.00;;;;;;5050080;28;20189;-55
2021/09/03 01:43:15;;;;;;;11.30;10.20;;;15.40;1.00;;;;;;5050513;28;20184;-55
2021/09/03 01:45:41;;;;;;;9.90;8.90;;;15.30;1.00;;;;;;5048695;28;20978;-54
2021/09/03 01:48:07;;;;;;;14.13;10.20;;;;;;;;;;5046266;28;20201;-54
2021/09/03 01:50:33;;;;;;;11.73;9.80;;;15.30;1.00;;;;;;5049923;28;20658;-54
2021/09/03 01:52:59;;;;;;;10.67;9.67;;;15.40;1.00;;;;;;5048890;28;20436;-54
2021/09/03 01:55:24;;;;;;;10.33;9.40;;;15.30;1.00;;;;;;5049869;28;20222;-55
2021/09/03 01:57:50;;;;;;;11.20;10.10;;;15.30;1.00;;;;;;5051257;28;20657;-54
2021/09/03 02:00:16;;;;;;;11.67;10.37;;;15.30;1.00;;;;;;5050299;28;20650;-54
2021/09/03 02:02:42;;;;;;;11.07;9.90;;;15.30;1.00;;;;;;5042828;28;20196;-56
2021/09/03 02:05:08;;;;;;;10.47;9.47;;;15.20;1.00;;;;;;5048880;28;20506;-55
2021/09/03 02:07:34;;;;;;;11.03;9.70;;;15.20;1.00;;;;;;5049767;28;20208;-56
2021/09/03 02:10:00;;;;;;;10.20;9.30;;;15.10;1.00;;;;;;5048728;28;20467;-55
2021/09/03 02:12:25;;;;;;;16.80;10.17;;;;;;;;;;5049727;28;20431;-54
2021/09/03 02:14:51;;;;;;;10.57;9.40;;;15.20;1.00;;;;;;5049538;28;20177;-55
2021/09/03 02:17:17;;;;;;;9.97;8.90;;;15.20;1.00;;;;;;5047342;28;20544;-55
2021/09/03 02:19:44;;;;;;;11.10;10.00;;;15.10;1.00;;;;;;5049592;28;20254;-54
2021/09/03 02:22:10;;;;;;;10.83;8.77;;;15.10;1.00;;;;;;5053752;28;20253;-56
2021/09/03 02:24:36;;;;;;;10.83;9.70;;;15.10;1.00;;;;;;5051560;28;20455;-54
2021/09/03 02:27:01;;;;;;;10.33;8.67;;;15.00;1.00;;;;;;5053120;28;20806;-55
2021/09/03 02:29:27;;;;;;;10.60;9.57;;;15.00;1.00;;;;;;5053372;28;20191;-55
2021/09/03 02:31:54;;;;;;;12.93;8.53;;;15.00;1.00;;;;;;5052552;28;20287;-54
2021/09/03 02:34:21;;;;;;;10.07;9.00;;;15.00;1.00;;;;;;5053975;28;20271;-56
2021/09/03 02:36:46;;;;;;;12.13;10.27;;;15.00;1.00;;;;;;5050572;28;20459;-54
2021/09/03 02:39:12;;;;;;;10.93;9.83;;;15.00;1.00;;;;;;5053429;28;20744;-54
2021/09/03 02:41:37;;;;;;;9.00;8.10;;;15.00;1.00;;;;;;5053101;28;20273;-55
2021/09/03 02:44:03;;;;;;;12.13;9.50;;;15.00;1.00;;;;;;5051276;28;20319;-54
2021/09/03 02:46:29;;;;;;;13.13;9.63;;;14.90;1.00;;;;;;5051708;28;20638;-55
2021/09/03 02:48:54;;;;;;;10.13;8.60;;;16.10;1.00;;;;;;5053874;28;20265;-56
2021/09/03 02:51:20;;;;;;;10.07;9.07;;;14.90;1.00;;;;;;5052086;28;20208;-55
2021/09/03 02:53:45;;;;;;;10.97;9.80;;;14.80;1.00;;;;;;5053109;28;20183;-55
2021/09/03 02:56:11;;;;;;;12.17;10.93;;;14.80;4.80;;;;;;5067711;28;20180;-54
2021/09/03 02:58:36;;;;;;;15.73;9.70;;;14.80;6.70;;;;;;5056944;28;20288;-55
2021/09/03 03:01:02;;;;;;;11.67;9.30;;;14.80;6.10;;;;;;5051470;28;20225;-54
2021/09/03 03:03:28;;;;;;;13.17;9.20;;;14.80;7.80;;;;;;5049787;28;20188;-54
2021/09/03 03:05:53;;;;;;;11.50;9.80;;;14.80;11.50;;;;;;5064390;28;20193;-56
2021/09/03 03:08:19;;;;;;;14.20;11.37;;;14.90;7.00;;;;;;5052933;28;20255;-54
2021/09/03 03:10:44;;;;;;;10.10;8.70;;;14.80;6.40;;;;;;5051372;28;20207;-54
2021/09/03 03:13:20;;;;;;;11.17;9.50;;;14.70;7.90;;;;;;5053204;28;20255;-56
2021/09/03 03:15:47;;;;;;;11.43;10.10;;;14.70;9.40;;;;;;5055916;28;20187;-56
2021/09/03 03:18:13;;;;;;;18.33;11.63;;;14.70;9.70;;;;;;5049214;28;20546;-54
2021/09/03 03:20:38;;;;;;;11.87;9.80;;;14.60;11.50;;;;;;5049013;28;20598;-54
2021/09/03 03:23:04;;;;;;;12.30;9.03;;;14.60;13.90;;;;;;5052960;28;20445;-55
2021/09/03 03:25:29;;;;;;;10.00;9.00;;;14.60;10.70;;;;;;5052826;28;20188;-55
2021/09/03 03:27:55;;;;;;;10.50;9.40;;;14.60;10.10;;;;;;5052322;28;20209;-55
2021/09/03 03:30:20;;;;;;;10.20;9.30;;;14.60;10.50;;;;;;5065772;28;20256;-55
2021/09/03 03:32:46;;;;;;;9.50;8.60;;;14.50;11.20;;;;;;5048846;28;20182;-54
2021/09/03 03:35:12;;;;;;;10.13;9.20;;;14.50;14.20;;;;;;5049225;28;20229;-56
2021/09/03 03:37:37;;;;;;;9.53;8.60;;;14.50;16.40;;;;;;5052609;28;20239;-54
2021/09/03 03:40:03;;;;;;;12.03;9.10;;;14.50;16.90;;;;;;5050243;28;20208;-54
2021/09/03 03:42:29;;;;;;;11.10;9.17;;;14.50;14.90;;;;;;5067904;28;20180;-55
2021/09/03 03:44:54;;;;;;;12.63;9.30;;;14.50;15.10;;;;;;5053909;28;20502;-55
2021/09/03 03:47:20;;;;;;;10.90;9.73;;;14.50;16.00;;;;;;5059401;28;20206;-54
2021/09/03 03:49:45;;;;;;;11.13;9.67;;;14.50;14.20;;;;;;5050899;28;20192;-55
2021/09/03 03:52:11;;;;;;;10.87;9.63;;;14.40;15.00;;;;;;5051225;28;20185;-55
2021/09/03 03:54:36;;;;;;;9.13;8.20;;;14.40;15.40;;;;;;5050553;28;20189;-54
2021/09/03 03:57:02;;;;;;;12.00;9.17;;;14.40;16.30;;;;;;5051669;28;20193;-54
2021/09/03 03:59:28;;;;;;;9.63;8.57;;;14.40;14.70;;;;;;5052018;28;20188;-55
2021/09/03 04:01:54;;;;;;;11.13;9.30;;;14.40;16.60;;;;;;5044024;28;20458;-56
2021/09/03 04:04:19;;;;;;;10.00;9.00;;;14.40;14.70;;;;;;5047928;28;20452;-56
2021/09/03 04:06:45;;;;;;;11.30;8.57;;;14.40;14.20;;;;;;5051625;28;20196;-54
2021/09/03 04:09:10;;;;;;;10.23;9.20;;;14.40;11.50;;;;;;5051947;28;20242;-56
2021/09/03 04:11:36;;;;;;;10.17;9.17;;;14.40;12.80;;;;;;5057470;28;20192;-54
2021/09/03 04:14:01;;;;;;;10.93;8.80;;;14.30;14.10;;;;;;5051609;28;20538;-57
2021/09/03 04:16:27;;;;;;;11.23;8.47;;;14.40;14.10;;;;;;5062301;28;20491;-57
2021/09/03 04:18:53;;;;;;;10.73;7.93;;;14.40;14.00;;;;;;5068955;28;20193;-57
2021/09/03 04:21:18;;;;;;;10.20;8.60;;;14.30;14.40;;;;;;5057697;28;20192;-56
2021/09/03 04:23:44;;;;;;;8.43;7.40;;;14.30;15.80;;;;;;5070393;28;20819;-57
2021/09/03 04:26:09;;;;;;;7.97;7.20;;;14.30;14.10;;;;;;5062954;28;20202;-57
2021/09/03 04:28:35;;;;;;;8.53;7.73;;;14.30;12.80;;;;;;5052564;28;20213;-57
2021/09/03 04:31:00;;;;;;;11.10;8.00;;;14.30;12.20;;;;;;5051150;28;20261;-58
2021/09/03 04:33:26;;;;;;;10.30;8.03;;;14.30;11.10;;;;;;5066751;28;20211;-57
2021/09/03 04:35:51;;;;;;;9.93;8.10;;;14.30;11.90;;;;;;5053969;28;20554;-56
2021/09/03 04:38:17;;;;;;;8.73;7.90;;;14.30;10.90;;;;;;5055976;28;20645;-56
2021/09/03 04:40:44;;;;;;;8.93;8.00;;;14.30;11.10;;;;;;5058161;28;20184;-56
2021/09/03 04:43:09;;;;;;;10.33;9.10;;;14.30;9.10;;;;;;5051017;28;20196;-56
2021/09/03 04:45:35;;;;;;;10.57;9.07;;;14.30;12.00;;;;;;5050527;28;20536;-54
2021/09/03 04:48:00;;;;;;;11.07;9.97;;;14.30;9.70;;;;;;5052065;28;20236;-55
2021/09/03 04:50:26;;;;;;;9.50;8.60;;;14.30;13.10;;;;;;5049211;28;20378;-54
2021/09/03 04:52:51;;;;;;;11.60;9.47;;;14.40;9.90;;;;;;5052612;28;20215;-55
2021/09/03 04:55:17;;;;;;;9.60;8.70;;;14.40;10.20;;;;;;5064851;28;20174;-56
2021/09/03 04:57:44;;;;;;;8.90;8.00;;;14.50;10.30;;;;;;5055886;28;20599;-54
2021/09/03 05:00:12;;;;;;;7.40;6.67;;;14.50;7.60;;;;;;5050264;28;20189;-55
2021/09/03 05:02:37;;;;;;;7.50;6.80;;;14.60;1.30;;;;;;5050350;28;20452;-55
2021/09/03 05:05:04;;;;;;;7.20;6.50;;;14.70;1.00;;;;;;5050778;28;20443;-56
2021/09/03 05:07:30;;;;;;;8.17;7.37;;;14.70;1.00;;;;;;5049010;28;20213;-56
2021/09/03 05:09:55;;;;;;;8.30;7.40;;;14.70;1.00;;;;;;5049995;28;20446;-55
2021/09/03 05:12:21;;;;;;;7.87;7.07;;;14.70;1.00;;;;;;5051807;28;20195;-56
2021/09/03 05:14:46;;;;;;;8.03;7.30;;;14.70;1.00;;;;;;5070499;28;20227;-56
2021/09/03 05:17:12;;;;;;;13.83;10.17;;;14.80;1.00;;;;;;5055224;28;20277;-55
2021/09/03 05:19:37;;;;;;;8.70;7.10;;;14.80;1.00;;;;;;5049595;28;20192;-54
2021/09/03 05:22:03;;;;;;;8.03;7.23;;;14.80;1.00;;;;;;5050386;28;20611;-55
2021/09/03 05:24:29;;;;;;;8.90;8.00;;;14.80;1.00;;;;;;5050774;28;20651;-57
2021/09/03 05:26:54;;;;;;;8.40;7.60;;;14.90;1.00;;;;;;5050171;28;20298;-56
2021/09/03 05:29:20;;;;;;;8.90;7.77;;;14.90;1.00;;;;;;5049393;28;20234;-56
2021/09/03 05:31:45;;;;;;;8.20;7.50;;;15.10;1.00;;;;;;5049804;28;20230;-55
2021/09/03 05:34:11;;;;;;;8.27;7.40;;;15.10;1.00;;;;;;5056186;28;20256;-54
2021/09/03 05:36:36;;;;;;;9.33;7.43;;;15.20;1.00;;;;;;5051993;28;20563;-55
2021/09/03 05:39:02;;;;;;;8.93;7.80;;;15.20;1.00;;;;;;5054698;28;20629;-55
2021/09/03 05:41:27;;;;;;;9.03;8.13;;;15.30;1.00;;;;;;5049712;28;20646;-56
2021/09/03 05:43:53;;;;;;;9.43;8.50;;;15.20;1.00;;;;;;5053990;28;20205;-55
2021/09/03 05:46:19;;;;;;;8.97;8.07;;;15.20;1.00;;;;;;5049265;28;20185;-55
2021/09/03 05:48:44;;;;;;;8.47;7.67;;;15.20;1.00;;;;;;5050667;28;20272;-55
2021/09/03 05:51:10;;;;;;;8.20;7.40;;;15.40;1.00;;;;;;5049551;28;20191;-55
2021/09/03 05:53:35;;;;;;;8.80;7.90;;;15.50;1.00;;;;;;5051803;28;20181;-56
2021/09/03 05:56:01;;;;;;;8.10;7.40;;;15.50;1.00;;;;;;5048341;28;20222;-55
2021/09/03 05:58:26;;;;;;;8.47;7.67;;;15.50;1.00;;;;;;5049065;28;20267;-56
2021/09/03 06:00:52;;;;;;;8.40;7.27;;;15.50;1.00;;;;;;5049554;28;20189;-56
2021/09/03 06:03:17;;;;;;;11.20;10.03;;;15.50;1.00;;;;;;5057845;28;20185;-55
2021/09/03 06:05:43;;;;;;;8.73;7.90;;;15.60;1.00;;;;;;5049015;28;20634;-55
2021/09/03 06:08:08;;;;;;;9.90;9.00;;;15.80;1.00;;;;;;5049618;28;20215;-54
2021/09/03 06:10:34;;;;;;;10.50;9.53;;;15.70;1.00;;;;;;5049606;28;20183;-56
2021/09/03 06:12:59;;;;;;;10.47;8.43;;;15.80;1.00;;;;;;5047628;28;20192;-55
2021/09/03 06:15:25;;;;;;;10.00;8.37;;;15.90;1.00;;;;;;5052115;28;20182;-55
2021/09/03 06:17:51;;;;;;;9.07;8.17;;;15.90;1.00;;;;;;5049033;28;20181;-56
2021/09/03 06:20:16;;;;;;;9.47;8.17;;;16.10;1.00;;;;;;5048224;28;20188;-57
2021/09/03 06:22:42;;;;;;;8.77;7.90;;;16.20;1.00;;;;;;5049811;28;20589;-55
2021/09/03 06:25:08;;;;;;;9.13;8.20;;;16.30;1.00;;;;;;5048327;28;20196;-56
2021/09/03 06:27:33;;;;;;;10.40;9.27;;;16.40;1.00;;;;;;5048419;28;20217;-56
2021/09/03 06:29:59;;;;;;;9.70;8.80;;;16.50;1.00;;;;;;5049411;28;20445;-55
2021/09/03 06:32:27;;;;;;;9.47;8.13;;;16.50;1.00;;;;;;5049225;28;20190;-55
2021/09/03 06:34:58;;;;;;;14.73;8.63;;;17.00;1.00;;;;;;5049625;28;20205;-56
2021/09/03 06:37:25;;;;;;;10.87;8.53;;;16.70;1.00;;;;;;5049230;28;20428;-55
2021/09/03 06:39:51;;;;;;;9.20;8.30;;;16.80;1.00;;;;;;5048416;28;20443;-55
2021/09/03 06:42:18;;;;;;;9.00;7.70;;;17.10;1.00;;;;;;5048800;28;22296;-55
2021/09/03 06:44:44;;;;;;;8.93;7.70;;;17.10;1.00;;;;;;5049518;28;20556;-56
2021/09/03 06:47:11;;;;;;;9.60;8.70;;;17.10;1.00;;;;;;5049371;28;21062;-56
2021/09/03 06:49:38;;;;;;;9.67;7.97;;;17.10;1.00;;;;;;5058709;28;20188;-55
2021/09/03 06:52:05;;;;;;;9.43;8.50;;;17.20;1.00;;;;;;5055194;28;20440;-57
2021/09/03 06:54:32;;;;;;;10.80;7.87;;;17.20;1.00;;;;;;5050799;28;20550;-55
2021/09/03 06:56:58;;;;;;;9.60;8.70;;;17.20;1.00;;;;;;5051859;28;20458;-55
2021/09/03 06:59:24;;;;;;;8.03;7.23;;;17.30;1.00;;;;;;5048238;28;20447;-56
2021/09/03 07:01:49;;;;;;;8.53;7.70;;;17.50;1.00;;;;;;5060839;28;20441;-56
2021/09/03 07:04:15;;;;;;;9.77;8.77;;;17.60;1.00;;;;;;5051623;28;20201;-55
2021/09/03 07:06:41;;;;;;;9.67;8.67;;;17.60;1.00;;;;;;5062179;28;20205;-57
2021/09/03 07:09:07;;;;;;;9.40;8.40;;;17.90;1.00;;;;;;5056411;28;20191;-55
2021/09/03 07:11:35;;;;;;;8.80;8.00;;;18.10;1.00;;;;;;5052402;28;20441;-56
2021/09/03 07:14:02;;;;;;;9.47;8.50;;;18.20;1.00;;;;;;5052774;28;20556;-56
2021/09/03 07:16:28;;;;;;;10.37;9.37;;;18.30;1.00;;;;;;5051830;28;20450;-55
2021/09/03 07:18:54;;;;;;;9.43;8.60;;;18.30;1.00;;;;;;5058011;28;20846;-56
2021/09/03 07:21:19;;;;;;;9.10;7.73;;;18.40;1.00;;;;;;5050302;28;20430;-56
2021/09/03 07:23:45;;;;;;;9.70;8.70;;;18.50;1.00;;;;;;5053846;28;20199;-56
2021/09/03 07:26:10;;;;;;;9.67;8.67;;;18.50;1.00;;;;;;5065840;28;20227;-56
2021/09/03 07:28:36;;;;;;;8.60;7.80;;;18.50;1.00;;;;;;5058626;28;20205;-55
2021/09/03 07:31:01;;;;;;;8.40;7.60;;;18.60;1.00;;;;;;5056930;28;20669;-56
2021/09/03 07:33:27;;;;;;;9.13;8.23;;;18.70;1.00;;;;;;5062955;28;20234;-56
2021/09/03 07:35:52;;;;;;;9.23;8.27;;;18.90;1.00;;;;;;5053087;28;20216;-55
2021/09/03 07:38:18;;;;;;;10.43;9.37;;;19.10;1.00;;;;;;5053421;28;20623;-55
2021/09/03 07:40:45;;;;;;;9.23;8.47;;;19.10;1.00;;;;;;5053069;28;20184;-56
2021/09/03 07:43:11;;;;;;;9.10;8.30;;;19.20;1.00;;;;;;5057533;28;20766;-55
2021/09/03 07:45:38;;;;;;;9.17;8.27;;;19.40;1.00;;;;;;5053909;28;20690;-55
2021/09/03 07:48:04;;;;;;;9.30;8.23;;;19.60;1.00;;;;;;5054126;28;20211;-56
2021/09/03 07:50:32;;;;;;;9.57;8.67;;;19.80;1.00;;;;;;5067460;28;20462;-55
2021/09/03 07:52:58;;;;;;;9.00;8.20;;;19.80;1.00;;;;;;5057568;28;20480;-55
2021/09/03 07:55:23;;;;;;;9.90;8.43;;;20.00;1.00;;;;;;5053900;28;20851;-55
2021/09/03 07:57:49;;;;;;;9.47;8.57;;;20.10;1.00;;;;;;5051690;28;20910;-56
2021/09/03 08:00:16;;;;;;;10.23;8.70;;;20.10;1.00;;;;;;5052114;28;20200;-55
2021/09/03 08:02:42;;;;;;;10.40;9.43;;;20.10;1.00;;;;;;5054487;28;20194;-56
2021/09/03 08:05:08;;;;;;;9.60;8.70;;;20.20;1.00;;;;;;5051780;28;20819;-57
2021/09/03 08:07:33;;;;;;;10.00;9.00;;;20.20;1.00;;;;;;5051823;28;20346;-55
2021/09/03 08:09:59;;;;;;;11.13;8.77;;;20.20;1.00;;;;;;5051755;28;20902;-55
2021/09/03 08:12:24;;;;;;;9.77;8.77;;;20.40;1.00;;;;;;5051177;28;20192;-56
2021/09/03 08:14:50;;;;;;;10.70;9.70;;;20.60;1.00;;;;;;5051832;28;20221;-57
2021/09/03 08:17:16;;;;;;;12.50;9.53;;;20.80;1.00;;;;;;5058905;28;20197;-56
2021/09/03 08:19:42;;;;;;;10.17;9.17;;;20.70;1.00;;;;;;5052481;28;20446;-55
2021/09/03 08:22:08;;;;;;;10.80;9.67;;;20.60;1.00;;;;;;5051065;28;20181;-56
2021/09/03 08:24:33;;;;;;;9.43;8.43;;;20.60;1.00;;;;;;5051933;28;20271;-55
2021/09/03 08:26:59;;;;;;;9.23;8.33;;;20.80;1.00;;;;;;5051683;28;20224;-56
2021/09/03 08:29:24;;;;;;;9.30;8.40;;;21.00;1.00;;;;;;5051896;28;20180;-56
2021/09/03 08:31:50;;;;;;;8.50;7.70;;;21.30;1.00;;;;;;5051580;28;20180;-56
2021/09/03 08:34:16;;;;;;;9.73;8.83;;;21.70;1.00;;;;;;5052195;28;20256;-56
2021/09/03 08:36:42;;;;;;;10.13;9.07;;;22.10;1.00;;;;;;5050186;28;20240;-55
2021/09/03 08:39:08;;;;;;;9.50;8.60;;;22.40;1.00;;;;;;5051401;28;20494;-57
2021/09/03 08:41:36;;;;;;;9.83;8.60;;;22.70;1.00;;;;;;5052019;28;20561;-55
2021/09/03 08:44:01;;;;;;;9.67;8.57;;;22.90;1.00;;;;;;5066926;28;20233;-56
2021/09/03 08:46:29;;;;;;;9.40;8.20;;;23.10;1.00;;;;;;5063086;28;20421;-57
2021/09/03 08:48:54;;;;;;;9.50;8.50;;;23.10;1.00;;;;;;5051006;28;20186;-56
2021/09/03 08:51:20;;;;;;;10.90;8.87;;;23.30;1.00;;;;;;5059492;28;20416;-56
2021/09/03 08:53:46;;;;;;;9.77;8.67;;;23.30;1.00;;;;;;5051211;28;20179;-57
2021/09/03 08:56:12;;;;;;;10.73;8.97;;;23.30;1.00;;;;;;5051434;28;20192;-56
2021/09/03 08:58:38;;;;;;;9.57;8.57;;;23.30;1.00;;;;;;5051607;28;20499;-55
2021/09/03 09:01:12;;;;;;;11.80;8.80;;;23.40;1.00;;;;;;5050900;28;20185;-55
2021/09/03 09:03:39;;;;;;;9.83;8.83;;;23.50;1.00;;;;;;5051081;28;20192;-55
2021/09/03 09:06:06;;;;;;;9.97;8.97;;;23.70;1.00;;;;;;5052191;28;20488;-56
2021/09/03 09:08:33;;;;;;;9.57;8.67;;;24.60;1.00;;;;;;5070825;28;20432;-55
2021/09/03 09:11:06;;;;;;;10.67;9.57;;;24.00;1.00;;;;;;5070695;28;20412;-56
2021/09/03 09:13:34;;;;;;;10.97;8.73;;;24.00;1.00;;;;;;5069141;28;20453;-56
2021/09/03 09:16:20;;;;;;;10.80;8.80;;;23.70;1.00;;;;;;5050371;28;20458;-57
2021/09/03 09:18:51;;;;;;;11.77;10.23;;;23.80;1.00;;;;;;5050376;28;20921;-55
2021/09/03 09:21:23;;;;;;;10.83;9.70;;;23.50;1.00;;;;;;5050825;28;20434;-56
2021/09/03 09:23:54;;;;;;;11.27;8.90;;;23.50;1.00;;;;;;5050790;28;20580;-56
2021/09/03 09:26:22;;;;;;;9.03;8.13;;;23.50;1.00;;;;;;5050569;28;20417;-55
2021/09/03 09:28:48;;;;;;;9.87;8.20;;;23.80;1.00;;;;;;5050567;28;20472;-57
2021/09/03 09:31:35;;;;;;;9.30;7.97;;;23.90;1.00;;;;;;5050468;28;20434;-56
2021/09/03 09:34:15;;;;;;;8.77;7.67;;;24.30;1.00;;;;;;5049489;28;20478;-55
2021/09/03 09:36:41;;;;;;;10.63;9.30;;;24.30;1.00;;;;;;5049840;28;20456;-57
2021/09/03 09:39:07;;;;;;;9.83;8.43;;;23.90;1.00;;;;;;5050198;28;20435;-56
2021/09/03 09:41:33;;;;;;;11.90;9.40;;;23.90;1.00;;;;;;5050081;28;20439;-56
2021/09/03 09:43:58;;;;;;;11.43;8.00;;;23.80;1.00;;;;;;5050185;28;20218;-56
2021/09/03 09:46:26;;;;;;;9.43;8.53;;;23.70;1.00;;;;;;5048679;28;20187;-57
2021/09/03 09:48:52;;;;;;;13.37;9.27;;;23.60;1.00;;;;;;5050000;28;20279;-55
2021/09/03 09:51:24;;;;;;;12.13;9.60;;;23.80;1.00;;;;;;5049872;28;20500;-55
2021/09/03 09:53:58;;;;;;;9.87;8.67;;;23.80;1.00;;;;;;5050334;28;20405;-56
2021/09/03 09:56:24;;;;;;;10.13;8.70;;;23.90;1.00;;;;;;5048003;28;20422;-56
2021/09/03 09:58:52;;;;;;;9.37;7.60;;;24.10;1.00;;;;;;5050242;28;20417;-55
2021/09/03 10:01:19;;;;;;;7.90;7.10;;;24.00;1.00;;;;;;5049896;28;20508;-56
2021/09/03 10:03:49;;;;;;;8.97;8.07;;;24.30;1.00;;;;;;5050107;28;20417;-57
2021/09/03 10:06:17;;;;;;;10.53;7.13;;;24.50;1.00;;;;;;5049905;28;20425;-56
2021/09/03 10:08:46;;;;;;;8.40;7.50;;;24.40;1.00;;;;;;5049468;28;20462;-55
2021/09/03 10:11:19;;;;;;;7.60;6.90;;;24.60;1.00;;;;;;5048719;28;20470;-55
2021/09/03 10:13:45;;;;;;;8.93;7.97;;;24.80;1.00;;;;;;5063470;28;20419;-57
2021/09/03 10:16:11;;;;;;;9.03;7.40;;;25.00;1.00;;;;;;5048563;28;20443;-56
2021/09/03 10:18:42;;;;;;;9.33;6.70;;;25.00;1.00;;;;;;5049370;28;20451;-56
2021/09/03 10:21:08;;;;;;;9.90;8.50;;;24.70;1.00;;;;;;5049975;28;20441;-56
2021/09/03 10:23:53;;;;;;;8.10;6.83;;;24.80;1.00;;;;;;5049805;28;20990;-56
2021/09/03 10:26:34;;;;;;;8.27;7.40;;;25.10;1.00;;;;;;5049631;28;20421;-56
2021/09/03 10:29:32;;;;;;;7.40;6.70;;;25.20;1.00;;;;;;5049770;28;20744;-55
2021/09/03 10:32:03;;;;;;;7.90;7.10;;;25.00;1.00;;;;;;5049713;28;20427;-55
2021/09/03 10:34:50;;;;;;;8.00;7.20;;;25.00;1.00;;;;;;5049418;28;20412;-56
2021/09/03 10:37:16;;;;;;;7.97;7.17;;;25.10;1.00;;;;;;5049734;28;20491;-57
2021/09/03 10:39:43;;;;;;;10.00;6.83;;;25.00;1.00;;;;;;5049711;28;20401;-56
2021/09/03 10:42:09;;;;;;;12.13;9.47;;;24.90;1.00;;;;;;5050118;28;20184;-56
2021/09/03 10:45:21;;;;;;;9.47;7.30;;;25.00;1.00;;;;;;5051273;28;20439;-58
2021/09/03 10:48:00;;;;;;;8.03;7.03;;;25.40;1.00;;;;;;5039057;28;20527;-56
2021/09/03 10:50:53;;;;;;;7.60;6.90;;;25.30;1.00;;;;;;5050998;28;20443;-56
2021/09/03 10:53:21;;;;;;;9.40;6.73;;;25.30;1.00;;;;;;5056174;28;20455;-56
2021/09/03 10:56:09;;;;;;;7.90;7.10;;;25.20;1.00;;;;;;5053472;28;20435;-56
2021/09/03 10:58:44;;;;;;;8.13;6.57;;;25.10;1.00;;;;;;5072249;28;20417;-58
2021/09/03 11:01:10;;;;;;;6.60;6.00;;;25.30;1.00;;;;;;5073440;28;20426;-56
2021/09/03 11:03:36;;;;;;;7.30;6.60;;;25.30;1.00;;;;;;5073663;28;20438;-55
2021/09/03 11:06:02;;;;;;;6.60;5.73;;;25.10;1.00;;;;;;5062063;28;20715;-57
2021/09/03 11:08:37;;;;;;;6.13;5.60;;;25.00;1.00;;;;;;5052954;28;20524;-57
2021/09/03 11:11:28;;;;;;;6.57;6.00;;;24.90;1.00;;;;;;5053161;28;20645;-55
2021/09/03 11:14:08;;;;;;;6.73;6.03;;;25.00;1.00;;;;;;5052499;28;20531;-56
2021/09/03 11:16:36;;;;;;;6.47;5.87;;;25.10;1.00;;;;;;5053001;28;20497;-57
2021/09/03 11:19:08;;;;;;;6.07;5.40;;;25.40;1.00;;;;;;5052542;28;20494;-56
2021/09/03 11:21:38;;;;;;;7.67;6.97;;;25.50;1.00;;;;;;5052225;28;20440;-56
2021/09/03 11:24:04;;;;;;;6.50;5.90;;;25.30;1.00;;;;;;5052670;28;20420;-56
2021/09/03 11:26:31;;;;;;;6.40;5.80;;;25.00;1.00;;;;;;5053014;28;20477;-55
2021/09/03 11:28:58;;;;;;;7.47;6.17;;;25.20;1.00;;;;;;5052792;28;20438;-57
2021/09/03 11:31:23;;;;;;;7.00;6.40;;;25.00;1.00;;;;;;5052274;28;20943;-56
2021/09/03 11:33:49;;;;;;;7.00;6.30;;;25.20;1.00;;;;;;5052564;28;20488;-56
2021/09/03 11:36:15;;;;;;;6.53;5.93;;;25.50;1.00;;;;;;5051969;28;20217;-56
2021/09/03 11:38:41;;;;;;;8.07;5.70;;;25.40;1.00;;;;;;5052240;28;20188;-55
2021/09/03 11:41:10;;;;;;;6.73;6.03;;;25.20;1.00;;;;;;5050620;28;20540;-57
2021/09/03 11:43:36;;;;;;;7.90;5.77;;;25.40;1.00;;;;;;5051976;28;20503;-57
2021/09/03 11:46:20;;;;;;;7.90;7.20;;;25.30;1.00;;;;;;5052060;28;20435;-58
2021/09/03 11:48:48;;;;;;;6.07;5.47;;;25.40;1.00;;;;;;5051144;28;20458;-56
2021/09/03 11:51:24;;;;;;;7.63;5.80;;;25.40;1.00;;;;;;5052988;28;20406;-56
2021/09/03 11:53:49;;;;;;;6.77;6.00;;;25.40;1.00;;;;;;5072520;28;20528;-57
2021/09/03 11:56:16;;;;;;;6.30;5.67;;;25.50;1.00;;;;;;5071209;28;20529;-56
2021/09/03 11:58:42;;;;;;;6.90;6.20;;;25.40;1.00;;;;;;5072134;28;20272;-55
2021/09/03 12:01:08;;;;;;;6.50;5.90;;;25.40;1.00;;;;;;5062350;28;20435;-56
2021/09/03 12:03:36;;;;;;;6.30;5.70;;;25.30;1.00;;;;;;5061696;28;20816;-55
2021/09/03 12:06:07;;;;;;;7.60;5.70;;;25.30;1.00;;;;;;5064048;28;20641;-57
2021/09/03 12:08:35;;;;;;;6.30;5.70;;;25.40;1.00;;;;;;5068813;28;20467;-56
2021/09/03 12:11:09;;;;;;;6.10;5.50;;;25.50;1.00;;;;;;5061910;28;20437;-56
2021/09/03 12:13:36;;;;;;;7.70;6.90;;;25.50;1.00;;;;;;5070366;28;20572;-56
2021/09/03 12:16:12;;;;;;;8.00;5.10;;;25.60;1.00;;;;;;5056164;28;20417;-56
2021/09/03 12:18:46;;;;;;;6.07;5.47;;;25.70;1.00;;;;;;5051703;28;20438;-55
2021/09/03 12:21:21;;;;;;;5.10;4.60;;;25.90;1.00;;;;;;5050519;28;20927;-56
2021/09/03 12:24:00;;;;;;;6.67;5.70;;;25.90;1.00;;;;;;5051521;28;20970;-56
2021/09/03 12:26:40;;;;;;;5.17;4.67;;;25.80;1.00;;;;;;5051349;28;20406;-57
2021/09/03 12:29:10;;;;;;;6.60;6.00;;;25.90;1.00;;;;;;5051732;28;20939;-58
2021/09/03 12:31:36;;;;;;;5.80;5.23;;;26.00;1.00;;;;;;5051339;28;20445;-58
2021/09/03 12:34:06;;;;;;;6.33;5.23;;;25.90;1.00;;;;;;5053888;28;20978;-56
2021/09/03 12:36:35;;;;;;;5.23;4.70;;;25.80;1.00;;;;;;5051448;28;20220;-59
2021/09/03 12:39:04;;;;;;;7.20;5.40;;;25.80;1.00;;;;;;5051233;28;20554;-55
2021/09/03 12:41:32;;;;;;;6.40;5.27;;;25.50;1.00;;;;;;5052051;28;20412;-56
2021/09/03 12:44:20;;;;;;;5.13;4.70;;;25.60;1.00;;;;;;5051585;28;20439;-56
2021/09/03 12:46:47;;;;;;;5.90;5.30;;;25.80;1.00;;;;;;5067983;28;20454;-56
2021/09/03 12:49:12;;;;;;;6.17;5.57;;;25.60;1.00;;;;;;5060944;28;20409;-56
2021/09/03 12:51:44;;;;;;;7.20;5.60;;;25.50;1.00;;;;;;5051149;28;20427;-57